sensor_id;sensor_type;location;lat;lon;timestamp;P1;durP1;ratioP1;P2;durP2;ratioP2
10009;SDS011;5044;48.652;9.250;2024-01-07T00:01:28;14.88;;;7.80;;
10009;SDS011;5044;48.652;9.250;2024-01-07T00:03:54;23.52;;;9.25;;
10009;SDS011;5044;48.652;9.250;2024-01-07T00:06:21;15.18;;;8.23;;
10009;SDS011;5044;48.652;9.250;2024-01-07T00:08:48;15.80;;;8.75;;
10009;SDS011;5044;48.652;9.250;2024-01-07T00:11:17;21.20;;;10.20;;
10009;SDS011;5044;48.652;9.250;2024-01-07T00:13:44;16.63;;;8.38;;
10009;SDS011;5044;48.652;9.250;2024-01-07T00:16:12;16.92;;;8.98;;
10009;SDS011;5044;48.652;9.250;2024-01-07T00:18:39;12.30;;;6.82;;
10009;SDS011;5044;48.652;9.250;2024-01-07T00:21:06;16.38;;;8.70;;
10009;SDS011;5044;48.652;9.250;2024-01-07T00:23:33;15.10;;;8.48;;
10009;SDS011;5044;48.652;9.250;2024-01-07T00:26:00;15.73;;;8.43;;
10009;SDS011;5044;48.652;9.250;2024-01-07T00:28:29;15.68;;;8.00;;
10009;SDS011;5044;48.652;9.250;2024-01-07T00:30:56;15.48;;;8.60;;
10009;SDS011;5044;48.652;9.250;2024-01-07T00:33:23;22.67;;;9.30;;
10009;SDS011;5044;48.652;9.250;2024-01-07T00:35:50;16.38;;;7.93;;
10009;SDS011;5044;48.652;9.250;2024-01-07T00:38:17;20.48;;;8.32;;
10009;SDS011;5044;48.652;9.250;2024-01-07T00:40:44;15.73;;;7.45;;
10009;SDS011;5044;48.652;9.250;2024-01-07T00:43:11;17.38;;;8.02;;
10009;SDS011;5044;48.652;9.250;2024-01-07T00:45:39;16.33;;;9.20;;
10009;SDS011;5044;48.652;9.250;2024-01-07T00:48:06;15.30;;;7.80;;
10009;SDS011;5044;48.652;9.250;2024-01-07T00:50:33;16.48;;;8.18;;
10009;SDS011;5044;48.652;9.250;2024-01-07T00:53:00;16.38;;;7.78;;
10009;SDS011;5044;48.652;9.250;2024-01-07T00:55:27;15.60;;;7.78;;
10009;SDS011;5044;48.652;9.250;2024-01-07T00:57:54;13.05;;;7.20;;
10009;SDS011;5044;48.652;9.250;2024-01-07T01:00:21;17.42;;;8.40;;
10009;SDS011;5044;48.652;9.250;2024-01-07T01:02:49;14.02;;;7.53;;
10009;SDS011;5044;48.652;9.250;2024-01-07T01:05:16;14.43;;;8.07;;
10009;SDS011;5044;48.652;9.250;2024-01-07T01:07:43;13.10;;;7.03;;
10009;SDS011;5044;48.652;9.250;2024-01-07T01:10:10;18.83;;;8.27;;
10009;SDS011;5044;48.652;9.250;2024-01-07T01:12:38;20.05;;;8.23;;
10009;SDS011;5044;48.652;9.250;2024-01-07T01:15:05;21.05;;;8.20;;
10009;SDS011;5044;48.652;9.250;2024-01-07T01:17:32;16.70;;;8.10;;
10009;SDS011;5044;48.652;9.250;2024-01-07T01:20:01;16.90;;;7.13;;
10009;SDS011;5044;48.652;9.250;2024-01-07T01:22:28;17.13;;;7.35;;
10009;SDS011;5044;48.652;9.250;2024-01-07T01:24:55;14.73;;;7.80;;
10009;SDS011;5044;48.652;9.250;2024-01-07T01:27:22;15.05;;;7.55;;
10009;SDS011;5044;48.652;9.250;2024-01-07T01:29:49;15.50;;;7.97;;
10009;SDS011;5044;48.652;9.250;2024-01-07T01:32:16;17.80;;;8.82;;
10009;SDS011;5044;48.652;9.250;2024-01-07T01:34:43;16.92;;;8.00;;
10009;SDS011;5044;48.652;9.250;2024-01-07T01:37:12;14.77;;;7.25;;
10009;SDS011;5044;48.652;9.250;2024-01-07T01:39:39;13.55;;;7.30;;
10009;SDS011;5044;48.652;9.250;2024-01-07T01:42:06;15.32;;;7.72;;
10009;SDS011;5044;48.652;9.250;2024-01-07T01:44:33;15.20;;;7.88;;
10009;SDS011;5044;48.652;9.250;2024-01-07T01:47:00;16.25;;;9.25;;
10009;SDS011;5044;48.652;9.250;2024-01-07T01:49:28;13.40;;;7.30;;
10009;SDS011;5044;48.652;9.250;2024-01-07T01:51:55;15.80;;;7.95;;
10009;SDS011;5044;48.652;9.250;2024-01-07T01:54:25;14.95;;;7.97;;
10009;SDS011;5044;48.652;9.250;2024-01-07T01:56:52;13.57;;;8.20;;
10009;SDS011;5044;48.652;9.250;2024-01-07T01:59:19;13.68;;;6.93;;
10009;SDS011;5044;48.652;9.250;2024-01-07T02:01:48;14.30;;;7.45;;
10009;SDS011;5044;48.652;9.250;2024-01-07T02:04:15;14.68;;;7.85;;
10009;SDS011;5044;48.652;9.250;2024-01-07T02:06:42;16.05;;;8.50;;
10009;SDS011;5044;48.652;9.250;2024-01-07T02:09:11;16.08;;;7.47;;
10009;SDS011;5044;48.652;9.250;2024-01-07T02:11:39;17.98;;;7.28;;
10009;SDS011;5044;48.652;9.250;2024-01-07T02:14:06;16.33;;;7.75;;
10009;SDS011;5044;48.652;9.250;2024-01-07T02:16:33;13.20;;;7.15;;
10009;SDS011;5044;48.652;9.250;2024-01-07T02:19:00;15.90;;;7.40;;
10009;SDS011;5044;48.652;9.250;2024-01-07T02:21:27;15.73;;;7.80;;
10009;SDS011;5044;48.652;9.250;2024-01-07T02:23:54;12.43;;;7.18;;
10009;SDS011;5044;48.652;9.250;2024-01-07T02:26:22;14.48;;;7.22;;
10009;SDS011;5044;48.652;9.250;2024-01-07T02:28:50;10.55;;;6.68;;
10009;SDS011;5044;48.652;9.250;2024-01-07T02:31:17;16.27;;;7.97;;
10009;SDS011;5044;48.652;9.250;2024-01-07T03:40:28;17.23;;;8.27;;
10009;SDS011;5044;48.652;9.250;2024-01-07T04:25:57;14.13;;;6.50;;
10009;SDS011;5044;48.652;9.250;2024-01-07T05:51:53;8.73;;;5.05;;
10009;SDS011;5044;48.652;9.250;2024-01-07T08:05:29;15.18;;;6.60;;
10009;SDS011;5044;48.652;9.250;2024-01-07T08:18:25;9.40;;;5.40;;
10009;SDS011;5044;48.652;9.250;2024-01-07T09:55:18;5.05;;;2.70;;
10009;SDS011;5044;48.652;9.250;2024-01-07T09:57:56;2.97;;;2.00;;
10009;SDS011;5044;48.652;9.250;2024-01-07T10:00:40;4.93;;;2.67;;
10009;SDS011;5044;48.652;9.250;2024-01-07T10:03:08;5.03;;;2.83;;
10009;SDS011;5044;48.652;9.250;2024-01-07T10:05:36;7.65;;;3.08;;
10009;SDS011;5044;48.652;9.250;2024-01-07T10:08:06;5.25;;;2.50;;
10009;SDS011;5044;48.652;9.250;2024-01-07T10:10:44;6.03;;;3.28;;
10009;SDS011;5044;48.652;9.250;2024-01-07T10:13:14;4.95;;;2.75;;
10009;SDS011;5044;48.652;9.250;2024-01-07T10:15:46;4.60;;;2.97;;
10009;SDS011;5044;48.652;9.250;2024-01-07T10:18:15;6.22;;;2.63;;
10009;SDS011;5044;48.652;9.250;2024-01-07T10:21:01;5.95;;;3.22;;
10009;SDS011;5044;48.652;9.250;2024-01-07T10:27:11;7.93;;;3.50;;
10009;SDS011;5044;48.652;9.250;2024-01-07T10:29:45;6.82;;;2.80;;
10009;SDS011;5044;48.652;9.250;2024-01-07T10:32:41;6.60;;;3.47;;
10009;SDS011;5044;48.652;9.250;2024-01-07T10:35:29;6.05;;;3.42;;
10009;SDS011;5044;48.652;9.250;2024-01-07T10:38:35;4.40;;;2.90;;
10009;SDS011;5044;48.652;9.250;2024-01-07T10:41:19;13.95;;;3.85;;
10009;SDS011;5044;48.652;9.250;2024-01-07T10:46:53;7.13;;;2.95;;
10009;SDS011;5044;48.652;9.250;2024-01-07T10:49:27;4.82;;;2.95;;
10009;SDS011;5044;48.652;9.250;2024-01-07T10:52:04;5.43;;;2.63;;
10009;SDS011;5044;48.652;9.250;2024-01-07T10:55:19;5.55;;;3.10;;
10009;SDS011;5044;48.652;9.250;2024-01-07T10:57:55;4.88;;;2.95;;
10009;SDS011;5044;48.652;9.250;2024-01-07T11:00:43;5.70;;;3.45;;
10009;SDS011;5044;48.652;9.250;2024-01-07T11:03:14;6.32;;;3.45;;
10009;SDS011;5044;48.652;9.250;2024-01-07T11:05:53;8.05;;;3.40;;
10009;SDS011;5044;48.652;9.250;2024-01-07T11:08:31;7.25;;;3.15;;
10009;SDS011;5044;48.652;9.250;2024-01-07T11:11:12;6.40;;;3.20;;
10009;SDS011;5044;48.652;9.250;2024-01-07T11:17:14;7.90;;;3.80;;
10009;SDS011;5044;48.652;9.250;2024-01-07T11:20:18;5.78;;;3.63;;
10009;SDS011;5044;48.652;9.250;2024-01-07T11:25:52;5.13;;;2.80;;
10009;SDS011;5044;48.652;9.250;2024-01-07T11:31:13;6.38;;;3.28;;
10009;SDS011;5044;48.652;9.250;2024-01-07T11:33:52;5.78;;;2.83;;
10009;SDS011;5044;48.652;9.250;2024-01-07T11:36:27;7.85;;;3.22;;
10009;SDS011;5044;48.652;9.250;2024-01-07T11:38:58;5.25;;;2.60;;
10009;SDS011;5044;48.652;9.250;2024-01-07T11:41:34;4.78;;;2.80;;
10009;SDS011;5044;48.652;9.250;2024-01-07T11:44:08;6.97;;;3.70;;
10009;SDS011;5044;48.652;9.250;2024-01-07T11:46:40;5.63;;;3.17;;
10009;SDS011;5044;48.652;9.250;2024-01-07T11:49:12;8.45;;;5.25;;
10009;SDS011;5044;48.652;9.250;2024-01-07T11:51:43;10.02;;;4.88;;
10009;SDS011;5044;48.652;9.250;2024-01-07T11:54:14;8.82;;;4.35;;
10009;SDS011;5044;48.652;9.250;2024-01-07T11:56:49;9.13;;;4.35;;
10009;SDS011;5044;48.652;9.250;2024-01-07T11:59:38;5.07;;;3.70;;
10009;SDS011;5044;48.652;9.250;2024-01-07T12:02:07;7.07;;;3.60;;
10009;SDS011;5044;48.652;9.250;2024-01-07T12:04:40;5.55;;;3.67;;
10009;SDS011;5044;48.652;9.250;2024-01-07T12:07:09;6.93;;;3.95;;
10009;SDS011;5044;48.652;9.250;2024-01-07T12:09:39;6.65;;;3.95;;
10009;SDS011;5044;48.652;9.250;2024-01-07T12:12:07;6.50;;;3.53;;
10009;SDS011;5044;48.652;9.250;2024-01-07T12:14:36;4.93;;;2.65;;
10009;SDS011;5044;48.652;9.250;2024-01-07T12:17:08;10.90;;;5.90;;
10009;SDS011;5044;48.652;9.250;2024-01-07T12:19:41;8.48;;;4.10;;
10009;SDS011;5044;48.652;9.250;2024-01-07T12:22:18;5.57;;;2.88;;
10009;SDS011;5044;48.652;9.250;2024-01-07T12:24:47;4.43;;;3.22;;
10009;SDS011;5044;48.652;9.250;2024-01-07T12:27:40;3.67;;;2.53;;
10009;SDS011;5044;48.652;9.250;2024-01-07T12:30:12;5.43;;;3.50;;
10009;SDS011;5044;48.652;9.250;2024-01-07T12:32:45;5.57;;;3.85;;
10009;SDS011;5044;48.652;9.250;2024-01-07T12:35:17;4.88;;;3.13;;
10009;SDS011;5044;48.652;9.250;2024-01-07T12:37:47;7.35;;;3.33;;
10009;SDS011;5044;48.652;9.250;2024-01-07T12:40:16;10.93;;;3.83;;
10009;SDS011;5044;48.652;9.250;2024-01-07T12:42:45;7.03;;;3.35;;
10009;SDS011;5044;48.652;9.250;2024-01-07T12:45:14;6.38;;;2.95;;
10009;SDS011;5044;48.652;9.250;2024-01-07T12:47:45;6.00;;;3.35;;
10009;SDS011;5044;48.652;9.250;2024-01-07T12:50:28;8.77;;;3.38;;
10009;SDS011;5044;48.652;9.250;2024-01-07T12:52:59;5.15;;;3.50;;
10009;SDS011;5044;48.652;9.250;2024-01-07T12:55:28;5.60;;;3.33;;
10009;SDS011;5044;48.652;9.250;2024-01-07T12:58:01;4.45;;;2.90;;
10009;SDS011;5044;48.652;9.250;2024-01-07T13:00:31;3.92;;;3.13;;
10009;SDS011;5044;48.652;9.250;2024-01-07T13:03:06;4.93;;;3.05;;
10009;SDS011;5044;48.652;9.250;2024-01-07T13:05:46;5.78;;;3.17;;
10009;SDS011;5044;48.652;9.250;2024-01-07T13:08:18;7.88;;;2.75;;
10009;SDS011;5044;48.652;9.250;2024-01-07T13:10:55;6.50;;;4.03;;
10009;SDS011;5044;48.652;9.250;2024-01-07T13:13:26;4.60;;;2.72;;
10009;SDS011;5044;48.652;9.250;2024-01-07T13:15:59;6.53;;;3.92;;
10009;SDS011;5044;48.652;9.250;2024-01-07T13:18:32;5.68;;;3.10;;
10009;SDS011;5044;48.652;9.250;2024-01-07T13:21:13;5.43;;;3.42;;
10009;SDS011;5044;48.652;9.250;2024-01-07T13:24:12;4.20;;;3.08;;
10009;SDS011;5044;48.652;9.250;2024-01-07T13:26:40;6.13;;;3.83;;
10009;SDS011;5044;48.652;9.250;2024-01-07T13:29:12;5.38;;;3.20;;
10009;SDS011;5044;48.652;9.250;2024-01-07T13:31:59;5.60;;;2.88;;
10009;SDS011;5044;48.652;9.250;2024-01-07T13:34:28;7.68;;;3.17;;
10009;SDS011;5044;48.652;9.250;2024-01-07T13:37:00;4.20;;;2.97;;
10009;SDS011;5044;48.652;9.250;2024-01-07T13:39:41;4.28;;;2.70;;
10009;SDS011;5044;48.652;9.250;2024-01-07T13:42:10;5.80;;;3.20;;
10009;SDS011;5044;48.652;9.250;2024-01-07T13:44:39;5.35;;;3.08;;
10009;SDS011;5044;48.652;9.250;2024-01-07T13:47:11;5.35;;;3.22;;
10009;SDS011;5044;48.652;9.250;2024-01-07T13:49:52;6.53;;;3.33;;
10009;SDS011;5044;48.652;9.250;2024-01-07T13:52:44;5.38;;;3.60;;
10009;SDS011;5044;48.652;9.250;2024-01-07T13:55:13;6.78;;;3.95;;
10009;SDS011;5044;48.652;9.250;2024-01-07T13:57:41;8.80;;;5.10;;
10009;SDS011;5044;48.652;9.250;2024-01-07T14:08:38;9.30;;;4.35;;
10009;SDS011;5044;48.652;9.250;2024-01-07T14:11:09;8.82;;;4.72;;
10009;SDS011;5044;48.652;9.250;2024-01-07T14:13:37;8.52;;;5.03;;
10009;SDS011;5044;48.652;9.250;2024-01-07T14:16:04;10.02;;;4.90;;
10009;SDS011;5044;48.652;9.250;2024-01-07T14:18:35;10.45;;;4.70;;
10009;SDS011;5044;48.652;9.250;2024-01-07T14:21:03;10.75;;;6.10;;
10009;SDS011;5044;48.652;9.250;2024-01-07T14:23:30;7.43;;;4.00;;
10009;SDS011;5044;48.652;9.250;2024-01-07T14:26:01;13.30;;;5.13;;
10009;SDS011;5044;48.652;9.250;2024-01-07T14:28:28;10.60;;;4.85;;
10009;SDS011;5044;48.652;9.250;2024-01-07T14:30:55;9.07;;;5.22;;
10009;SDS011;5044;48.652;9.250;2024-01-07T14:33:25;9.43;;;4.95;;
10009;SDS011;5044;48.652;9.250;2024-01-07T14:35:52;14.20;;;6.22;;
10009;SDS011;5044;48.652;9.250;2024-01-07T14:38:19;11.25;;;5.57;;
10009;SDS011;5044;48.652;9.250;2024-01-07T14:40:46;13.20;;;5.85;;
10009;SDS011;5044;48.652;9.250;2024-01-07T14:43:16;10.38;;;5.35;;
10009;SDS011;5044;48.652;9.250;2024-01-07T14:45:43;15.02;;;7.32;;
10009;SDS011;5044;48.652;9.250;2024-01-07T14:48:11;10.35;;;5.45;;
10009;SDS011;5044;48.652;9.250;2024-01-07T14:50:39;14.70;;;6.97;;
10009;SDS011;5044;48.652;9.250;2024-01-07T14:53:06;10.32;;;5.93;;
10009;SDS011;5044;48.652;9.250;2024-01-07T14:55:33;14.43;;;5.82;;
10009;SDS011;5044;48.652;9.250;2024-01-07T14:58:33;14.25;;;6.43;;
10009;SDS011;5044;48.652;9.250;2024-01-07T15:01:42;16.20;;;6.68;;
10009;SDS011;5044;48.652;9.250;2024-01-07T15:07:21;19.10;;;8.10;;
10009;SDS011;5044;48.652;9.250;2024-01-07T15:10:00;14.98;;;5.97;;
10009;SDS011;5044;48.652;9.250;2024-01-07T15:43:49;13.13;;;5.95;;
10009;SDS011;5044;48.652;9.250;2024-01-07T15:46:18;14.80;;;8.38;;
10009;SDS011;5044;48.652;9.250;2024-01-07T15:49:05;20.38;;;13.82;;
10009;SDS011;5044;48.652;9.250;2024-01-07T15:51:33;12.68;;;6.45;;
10009;SDS011;5044;48.652;9.250;2024-01-07T15:54:00;16.50;;;8.40;;
10009;SDS011;5044;48.652;9.250;2024-01-07T15:56:27;13.57;;;6.03;;
10009;SDS011;5044;48.652;9.250;2024-01-07T15:58:55;11.88;;;5.85;;
10009;SDS011;5044;48.652;9.250;2024-01-07T16:01:22;14.23;;;5.88;;
10009;SDS011;5044;48.652;9.250;2024-01-07T16:03:49;12.20;;;5.88;;
10009;SDS011;5044;48.652;9.250;2024-01-07T16:06:15;11.55;;;5.32;;
10009;SDS011;5044;48.652;9.250;2024-01-07T16:08:42;13.10;;;5.68;;
10009;SDS011;5044;48.652;9.250;2024-01-07T16:11:09;16.25;;;6.68;;
10009;SDS011;5044;48.652;9.250;2024-01-07T16:13:41;11.98;;;6.57;;
10009;SDS011;5044;48.652;9.250;2024-01-07T16:16:09;12.85;;;6.22;;
10009;SDS011;5044;48.652;9.250;2024-01-07T16:18:36;15.20;;;6.43;;
10009;SDS011;5044;48.652;9.250;2024-01-07T16:21:03;10.88;;;6.53;;
10009;SDS011;5044;48.652;9.250;2024-01-07T16:23:30;10.52;;;5.63;;
10009;SDS011;5044;48.652;9.250;2024-01-07T16:25:58;16.13;;;6.43;;
10009;SDS011;5044;48.652;9.250;2024-01-07T16:28:25;11.60;;;5.70;;
10009;SDS011;5044;48.652;9.250;2024-01-07T16:30:52;10.95;;;5.93;;
10009;SDS011;5044;48.652;9.250;2024-01-07T16:33:21;9.38;;;6.00;;
10009;SDS011;5044;48.652;9.250;2024-01-07T16:35:48;10.57;;;5.97;;
10009;SDS011;5044;48.652;9.250;2024-01-07T16:38:15;12.57;;;5.95;;
10009;SDS011;5044;48.652;9.250;2024-01-07T16:40:43;7.50;;;4.15;;
10009;SDS011;5044;48.652;9.250;2024-01-07T16:43:10;9.00;;;5.03;;
10009;SDS011;5044;48.652;9.250;2024-01-07T16:45:36;9.73;;;4.18;;
10009;SDS011;5044;48.652;9.250;2024-01-07T16:48:04;9.27;;;4.15;;
10009;SDS011;5044;48.652;9.250;2024-01-07T16:50:32;8.70;;;4.03;;
10009;SDS011;5044;48.652;9.250;2024-01-07T16:52:59;6.50;;;3.33;;
10009;SDS011;5044;48.652;9.250;2024-01-07T16:55:29;7.35;;;3.15;;
10009;SDS011;5044;48.652;9.250;2024-01-07T16:57:56;6.55;;;3.95;;
10009;SDS011;5044;48.652;9.250;2024-01-07T17:00:22;15.20;;;5.43;;
10009;SDS011;5044;48.652;9.250;2024-01-07T17:02:49;12.55;;;6.70;;
10009;SDS011;5044;48.652;9.250;2024-01-07T17:05:16;22.92;;;9.35;;
